createdAt,value
2018-02-14T00:01:11.703Z,29.48
2018-02-14T00:03:40.154Z,22.98
2018-02-14T00:06:08.462Z,27.65
2018-02-14T00:08:36.775Z,24.15
2018-02-14T00:11:05.117Z,18.87
2018-02-14T00:13:33.427Z,24.15
2018-02-14T00:16:01.747Z,25.27
2018-02-14T00:18:30.118Z,25.67
2018-02-14T00:20:58.432Z,28.87
2018-02-14T00:23:26.763Z,27.35
2018-02-14T00:25:55.140Z,29.73
2018-02-14T00:28:24.214Z,22.52
2018-02-14T00:30:52.527Z,23.67
2018-02-14T00:33:20.912Z,28.40
2018-02-14T00:35:49.228Z,23.92
2018-02-14T00:38:17.540Z,29.92
2018-02-14T00:40:46.746Z,24.75
2018-02-14T00:43:14.818Z,25.20
2018-02-14T00:45:43.128Z,26.90
2018-02-14T00:48:11.462Z,27.45
2018-02-14T00:50:40.543Z,26.45
2018-02-14T00:53:08.852Z,22.02
2018-02-14T00:55:37.222Z,28.40
2018-02-14T00:58:05.531Z,21.25
2018-02-14T01:00:33.842Z,25.30
2018-02-14T01:03:02.347Z,24.25
2018-02-14T01:05:31.448Z,26.52
2018-02-14T01:08:00.522Z,27.20
2018-02-14T01:10:28.879Z,21.75
2018-02-14T01:12:57.206Z,25.15
2018-02-14T01:15:25.516Z,23.67
2018-02-14T01:17:53.925Z,25.92
2018-02-14T01:20:27.649Z,28.73
2018-02-14T01:22:56.777Z,27.70
2018-02-14T01:25:25.123Z,28.98
2018-02-14T01:27:53.454Z,24.45
2018-02-14T01:30:21.879Z,34.63
2018-02-14T01:32:50.210Z,31.23
2018-02-14T01:35:18.538Z,34.00
2018-02-14T01:37:47.645Z,35.55
2018-02-14T01:40:16.732Z,27.75
2018-02-14T01:42:45.830Z,32.65
2018-02-14T01:45:21.678Z,31.35
2018-02-14T01:47:50.768Z,29.80
2018-02-14T01:50:19.095Z,33.80
2018-02-14T01:52:47.494Z,31.08
2018-02-14T01:55:15.816Z,32.15
2018-02-14T01:57:44.943Z,31.23
2018-02-14T02:00:13.284Z,29.50
2018-02-14T02:02:41.608Z,26.37
2018-02-14T02:05:09.967Z,30.60
2018-02-14T02:07:38.303Z,28.77
2018-02-14T02:10:06.592Z,29.37
2018-02-14T02:12:34.935Z,24.23
2018-02-14T02:15:03.228Z,25.40
2018-02-14T02:17:31.518Z,32.22
2018-02-14T02:19:59.858Z,34.40
2018-02-14T02:22:28.172Z,32.03
2018-02-14T02:24:56.483Z,33.28
2018-02-14T02:27:24.832Z,36.45
2018-02-14T02:29:54.252Z,28.05
2018-02-14T02:32:22.596Z,31.00
2018-02-14T02:34:51.410Z,34.58
2018-02-14T02:37:19.832Z,35.35
2018-02-14T02:53:26.527Z,24.50
2018-02-14T02:55:54.843Z,33.60
2018-02-14T02:58:23.906Z,45.25
2018-02-14T03:00:52.267Z,37.33
2018-02-14T03:03:20.585Z,40.65
2018-02-14T03:05:49.741Z,30.77
2018-02-14T03:08:18.059Z,31.25
2018-02-14T03:10:46.371Z,41.03
2018-02-14T03:13:14.918Z,29.65
2018-02-14T03:15:43.254Z,32.95
2018-02-14T03:18:11.708Z,30.05
2018-02-14T03:20:40.023Z,37.33
2018-02-14T03:23:08.336Z,33.25
2018-02-14T03:25:36.679Z,35.67
2018-02-14T03:28:05.095Z,30.02
2018-02-14T03:30:34.008Z,30.85
2018-02-14T03:33:02.329Z,38.92
2018-02-14T03:35:30.679Z,42.65
2018-02-14T03:37:59.006Z,44.40
2018-02-14T03:40:27.327Z,45.40
2018-02-14T03:42:55.695Z,32.63
2018-02-14T03:45:24.006Z,46.67
2018-02-14T03:47:52.319Z,34.83
2018-02-14T03:50:20.979Z,51.95
2018-02-14T03:52:49.299Z,43.78
2018-02-14T03:55:17.620Z,43.78
2018-02-14T03:57:45.977Z,55.72
2018-02-14T04:00:14.291Z,42.80
2018-02-14T04:02:42.612Z,48.90
2018-02-14T04:05:10.960Z,41.28
2018-02-14T04:07:39.271Z,52.30
2018-02-14T04:10:07.640Z,56.28
2018-02-14T04:12:35.947Z,52.53
2018-02-14T04:15:04.264Z,42.58
2018-02-14T04:17:32.722Z,53.50
2018-02-14T04:20:01.044Z,41.53
2018-02-14T04:22:30.124Z,51.53
2018-02-14T04:24:58.471Z,40.42
2018-02-14T04:27:26.783Z,39.75
2018-02-14T04:29:55.110Z,38.53
2018-02-14T04:32:23.452Z,41.10
2018-02-14T04:34:52.726Z,42.62
2018-02-14T04:37:21.871Z,47.47
2018-02-14T04:39:50.184Z,51.72
2018-02-14T04:42:18.503Z,48.87
2018-02-14T04:44:46.879Z,49.13
2018-02-14T04:47:15.968Z,48.28
2018-02-14T04:49:44.455Z,48.10
2018-02-14T04:52:12.824Z,47.50
2018-02-14T04:54:41.136Z,47.45
2018-02-14T04:57:09.439Z,66.62
2018-02-14T04:59:37.816Z,51.40
2018-02-14T05:02:06.250Z,56.60
2018-02-14T05:04:35.332Z,60.33
2018-02-14T05:07:03.695Z,51.05
2018-02-14T05:09:32.007Z,57.65
2018-02-14T05:12:00.324Z,53.05
2018-02-14T05:14:28.688Z,52.90
2018-02-14T05:16:57.008Z,42.80
2018-02-14T05:19:25.319Z,59.47
2018-02-14T05:21:53.668Z,44.35
2018-02-14T05:24:21.989Z,41.78
2018-02-14T05:26:50.311Z,33.75
2018-02-14T05:29:18.887Z,37.00
2018-02-14T05:31:47.235Z,33.30
2018-02-14T05:34:15.548Z,34.92
2018-02-14T05:36:43.899Z,40.15
2018-02-14T05:39:12.211Z,52.13
2018-02-14T05:41:40.528Z,41.33
2018-02-14T05:44:08.888Z,45.67
2018-02-14T05:46:37.205Z,39.03
2018-02-14T05:49:05.516Z,48.67
2018-02-14T05:51:33.881Z,47.42
2018-02-14T05:54:02.191Z,46.50
2018-02-14T05:56:30.503Z,36.30
2018-02-14T05:58:58.874Z,43.40
2018-02-14T06:01:27.194Z,47.40
2018-02-14T06:03:55.512Z,55.90
2018-02-14T06:06:23.876Z,54.00
2018-02-14T06:08:52.211Z,46.72
2018-02-14T06:11:20.532Z,62.17
2018-02-14T06:13:49.221Z,71.07
2018-02-14T06:16:17.524Z,59.28
2018-02-14T06:18:45.832Z,62.78
2018-02-14T06:21:14.180Z,62.30
2018-02-14T06:23:42.504Z,85.00
2018-02-14T06:26:10.872Z,50.50
2018-02-14T06:28:39.252Z,72.10
2018-02-14T06:31:07.575Z,61.22
2018-02-14T06:33:35.898Z,64.97
2018-02-14T06:36:04.268Z,55.28
2018-02-14T06:38:32.575Z,60.40
2018-02-14T06:41:00.900Z,40.92
2018-02-14T06:43:29.244Z,54.20
2018-02-14T06:45:57.559Z,49.55
2018-02-14T06:48:25.875Z,44.03
2018-02-14T06:50:54.244Z,49.88
2018-02-14T06:53:22.556Z,63.33
2018-02-14T06:55:50.871Z,52.35
2018-02-14T06:58:19.276Z,60.40
2018-02-14T07:00:47.935Z,66.53
2018-02-14T07:03:17.091Z,62.40
2018-02-14T07:05:46.180Z,61.78
2018-02-14T07:08:16.246Z,55.58
2018-02-14T07:10:44.563Z,66.28
2018-02-14T07:13:12.876Z,56.05
2018-02-14T07:15:41.242Z,67.18
2018-02-14T07:18:09.552Z,69.30
2018-02-14T07:20:37.863Z,53.83
2018-02-14T07:23:06.210Z,55.92
2018-02-14T07:25:34.528Z,41.35
2018-02-14T07:28:02.913Z,39.85
2018-02-14T07:30:31.236Z,41.60
2018-02-14T07:33:00.319Z,40.25
2018-02-14T07:35:29.420Z,42.38
2018-02-14T07:37:58.503Z,44.00
2018-02-14T07:40:27.655Z,37.90
2018-02-14T07:42:55.999Z,40.08
2018-02-14T07:45:24.323Z,41.20
2018-02-14T07:47:53.824Z,47.85
2018-02-14T07:50:22.136Z,47.70
2018-02-14T07:52:50.460Z,41.00
2018-02-14T07:55:19.000Z,34.08
2018-02-14T07:57:47.341Z,35.33
2018-02-14T08:00:15.656Z,42.38
2018-02-14T08:02:44.183Z,37.55
2018-02-14T08:05:12.504Z,32.92
2018-02-14T08:07:40.819Z,37.03
2018-02-14T08:10:09.192Z,39.70
2018-02-14T08:12:38.275Z,36.80
2018-02-14T08:15:07.355Z,38.50
2018-02-14T08:17:35.727Z,27.27
2018-02-14T08:20:04.055Z,32.70
2018-02-14T08:22:33.141Z,36.65
2018-02-14T08:25:01.480Z,38.95
2018-02-14T08:27:29.807Z,34.50
2018-02-14T08:29:58.151Z,29.10
2018-02-14T08:32:26.516Z,30.05
2018-02-14T08:34:55.628Z,37.63
2018-02-14T08:37:23.955Z,28.52
2018-02-14T08:39:52.316Z,39.38
2018-02-14T08:42:20.648Z,35.25
2018-02-14T08:44:48.975Z,39.10
2018-02-14T08:47:17.347Z,28.87
2018-02-14T08:49:46.311Z,30.73
2018-02-14T08:52:14.639Z,24.98
2018-02-14T08:54:43.004Z,35.83
2018-02-14T08:57:11.319Z,33.30
2018-02-14T08:59:39.636Z,32.67
2018-02-14T09:02:08.784Z,40.95
2018-02-14T09:04:38.315Z,36.38
2018-02-14T09:07:06.395Z,35.17
2018-02-14T09:09:34.870Z,35.28
2018-02-14T09:12:03.188Z,34.33
2018-02-14T09:14:31.503Z,35.72
2018-02-14T09:16:59.852Z,35.75
2018-02-14T09:19:28.172Z,37.83
2018-02-14T09:21:56.532Z,39.58
2018-02-14T09:24:24.907Z,39.78
2018-02-14T09:26:53.231Z,36.67
2018-02-14T09:29:21.610Z,41.17
2018-02-14T09:31:50.700Z,33.53
2018-02-14T09:34:19.787Z,35.13
2018-02-14T09:36:48.927Z,36.90
2018-02-14T09:39:17.256Z,37.33
2018-02-14T09:41:45.571Z,35.47
2018-02-14T09:44:13.934Z,36.55
2018-02-14T09:46:43.025Z,35.42
2018-02-14T09:49:12.102Z,31.70
2018-02-14T09:51:40.471Z,34.47
2018-02-14T09:54:08.789Z,34.58
2018-02-14T09:56:37.102Z,32.85
2018-02-14T09:59:05.459Z,32.17
2018-02-14T10:01:33.780Z,34.22
2018-02-14T10:04:02.118Z,35.47
2018-02-14T10:06:30.471Z,33.30
2018-02-14T10:08:58.800Z,37.75
2018-02-14T10:11:27.126Z,33.17
2018-02-14T10:13:55.479Z,40.10
2018-02-14T10:16:23.798Z,41.35
2018-02-14T10:18:52.153Z,35.40
2018-02-14T10:21:20.523Z,33.08
2018-02-14T10:23:49.608Z,35.20
2018-02-14T10:26:17.927Z,38.80
2018-02-14T10:28:46.292Z,37.08
2018-02-14T10:31:14.607Z,31.23
2018-02-14T10:33:42.919Z,36.17
2018-02-14T10:36:11.292Z,46.63
2018-02-14T10:38:39.628Z,32.60
2018-02-14T10:41:07.943Z,36.53
2018-02-14T10:43:36.316Z,33.35
2018-02-14T10:46:04.632Z,33.10
2018-02-14T10:48:32.979Z,33.47
2018-02-14T10:51:01.618Z,38.17
2018-02-14T10:53:29.700Z,32.47
2018-02-14T10:55:58.019Z,38.05
2018-02-14T10:58:26.380Z,39.20
2018-02-14T11:01:00.087Z,34.97
2018-02-14T11:03:33.895Z,33.40
2018-02-14T11:06:07.700Z,32.83
2018-02-14T11:08:36.032Z,24.47
2018-02-14T11:11:04.348Z,32.15
2018-02-14T11:13:32.979Z,27.40
2018-02-14T11:16:02.048Z,32.67
2018-02-14T11:18:30.368Z,29.02
2018-02-14T11:20:58.704Z,30.65
2018-02-14T11:23:27.027Z,33.22
2018-02-14T11:25:55.400Z,32.53
2018-02-14T11:28:23.717Z,27.10
2018-02-14T11:30:52.035Z,29.85
2018-02-14T11:33:20.415Z,28.60
2018-02-14T11:35:49.495Z,36.42
2018-02-14T11:38:18.712Z,28.50
2018-02-14T11:40:47.039Z,31.80
2018-02-14T11:43:15.347Z,27.40
2018-02-14T11:45:43.796Z,37.00
2018-02-14T11:48:12.107Z,28.43
2018-02-14T11:50:40.418Z,31.17
2018-02-14T11:53:08.782Z,30.80
2018-02-14T11:55:37.095Z,29.40
2018-02-14T11:58:05.396Z,29.17
2018-02-14T12:00:33.751Z,31.10
2018-02-14T12:03:02.064Z,26.70
2018-02-14T12:05:30.376Z,26.93
2018-02-14T12:07:58.907Z,25.30
2018-02-14T12:10:27.224Z,25.70
2018-02-14T12:12:56.297Z,24.90
2018-02-14T12:15:25.024Z,32.43
2018-02-14T12:17:53.339Z,26.80
2018-02-14T12:20:21.650Z,28.97
2018-02-14T12:22:50.019Z,28.40
2018-02-14T12:25:19.116Z,24.87
2018-02-14T12:27:47.427Z,29.67
2018-02-14T12:30:15.795Z,26.33
2018-02-14T12:32:44.113Z,19.60
2018-02-14T12:35:12.436Z,30.43
2018-02-14T12:37:41.564Z,25.50
2018-02-14T12:40:10.006Z,24.90
2018-02-14T12:42:38.321Z,22.73
2018-02-14T12:45:06.779Z,23.73
2018-02-14T12:47:35.843Z,21.40
2018-02-14T12:50:04.147Z,24.03
2018-02-14T12:52:33.287Z,20.90
2018-02-14T12:55:01.597Z,18.80
2018-02-14T12:57:29.916Z,17.30
2018-02-14T12:59:58.481Z,21.40
2018-02-14T13:02:27.555Z,23.27
2018-02-14T13:04:55.859Z,20.67
2018-02-14T13:07:24.241Z,22.17
2018-02-14T13:09:52.553Z,20.80
2018-02-14T13:12:20.864Z,30.43
2018-02-14T13:14:49.387Z,41.27
2018-02-14T13:17:17.703Z,22.17
2018-02-14T13:19:46.017Z,24.73
2018-02-14T13:22:14.375Z,22.73
2018-02-14T13:24:42.686Z,15.50
2018-02-14T13:27:11.752Z,19.53
2018-02-14T13:29:40.112Z,13.87
2018-02-14T13:32:08.411Z,9.73
2018-02-14T13:34:36.638Z,13.67
2018-02-14T13:37:05.000Z,13.73
2018-02-14T13:39:33.303Z,13.60
2018-02-14T13:42:01.604Z,13.33
2018-02-14T13:44:29.960Z,13.83
2018-02-14T13:46:58.268Z,18.10
2018-02-14T13:49:26.580Z,16.70
2018-02-14T13:51:54.943Z,18.73
2018-02-14T13:54:23.254Z,14.93
2018-02-14T13:56:51.563Z,17.70
2018-02-14T13:59:19.915Z,18.40
2018-02-14T14:01:48.220Z,20.37
2018-02-14T14:04:16.525Z,14.40
2018-02-14T14:06:44.877Z,15.47
2018-02-14T14:09:13.184Z,16.53
2018-02-14T14:11:41.487Z,16.53
2018-02-14T14:14:09.836Z,15.50
2018-02-14T14:16:38.140Z,14.13
2018-02-14T14:19:06.448Z,15.53
2018-02-14T14:21:34.804Z,16.87
2018-02-14T14:24:03.108Z,16.70
2018-02-14T14:26:31.430Z,15.70
2018-02-14T14:29:00.561Z,14.00
2018-02-14T14:31:28.871Z,12.10
2018-02-14T14:33:57.179Z,12.70
2018-02-14T14:36:25.507Z,16.33
2018-02-14T14:38:53.871Z,15.23
2018-02-14T14:41:22.344Z,16.33
2018-02-14T14:43:50.650Z,15.40
2018-02-14T14:46:18.959Z,15.27
2018-02-14T14:48:47.404Z,12.83
2018-02-14T14:51:15.707Z,10.80
2018-02-14T14:53:44.015Z,11.10
2018-02-14T14:56:12.375Z,9.87
2018-02-14T14:58:40.688Z,17.13
2018-02-14T15:01:08.993Z,12.77
2018-02-14T15:03:37.369Z,16.57
2018-02-14T15:06:05.703Z,24.20
2018-02-14T15:08:34.772Z,22.37
2018-02-14T15:11:03.128Z,14.50
2018-02-14T15:13:31.646Z,15.50
2018-02-14T15:15:59.951Z,17.33
2018-02-14T15:18:28.091Z,18.40
2018-02-14T15:20:56.518Z,11.67
2018-02-14T15:23:24.819Z,13.83
2018-02-14T15:25:53.128Z,16.00
2018-02-14T15:28:21.483Z,13.57
2018-02-14T15:30:49.827Z,13.03
2018-02-14T15:33:18.195Z,14.00
2018-02-14T15:35:46.523Z,14.00
2018-02-14T15:38:14.908Z,17.63
2018-02-14T15:40:43.045Z,14.43
2018-02-14T15:43:11.360Z,17.60
2018-02-14T15:45:39.667Z,19.50
2018-02-14T15:48:08.068Z,12.57
2018-02-14T15:50:36.424Z,14.50
2018-02-14T15:53:04.747Z,19.37
2018-02-14T15:55:33.087Z,14.20
2018-02-14T15:58:01.407Z,13.13
2018-02-14T16:00:29.720Z,16.10
2018-02-14T16:02:58.076Z,11.80
2018-02-14T16:05:26.391Z,20.97
2018-02-14T16:07:54.787Z,18.90
2018-02-14T16:10:23.783Z,19.13
2018-02-14T16:12:52.214Z,17.60
2018-02-14T16:15:20.576Z,26.47
2018-02-14T16:17:48.887Z,13.53
2018-02-14T16:20:17.200Z,14.97
2018-02-14T16:22:45.532Z,19.53
2018-02-14T16:25:13.839Z,22.63
2018-02-14T16:27:42.203Z,17.02
2018-02-14T16:30:10.533Z,18.87
2018-02-14T16:32:38.843Z,25.83
2018-02-14T16:35:07.263Z,21.37
2018-02-14T16:37:35.573Z,16.50
2018-02-14T16:40:03.892Z,15.27
2018-02-14T16:42:32.219Z,22.20
2018-02-14T16:45:00.528Z,23.00
2018-02-14T16:47:28.867Z,18.60
2018-02-14T16:49:57.183Z,19.03
2018-02-14T16:52:25.738Z,20.87
2018-02-14T16:54:54.429Z,19.27
2018-02-14T16:57:22.744Z,15.87
2018-02-14T16:59:51.155Z,20.58
2018-02-14T17:02:19.596Z,24.20
2018-02-14T17:04:47.912Z,20.92
2018-02-14T17:07:16.223Z,23.17
2018-02-14T17:09:44.598Z,19.15
2018-02-14T17:12:12.922Z,17.37
2018-02-14T17:14:42.015Z,18.30
2018-02-14T17:17:10.388Z,19.25
2018-02-14T17:19:38.700Z,16.80
2018-02-14T17:22:07.024Z,22.17
2018-02-14T17:24:35.375Z,17.87
2018-02-14T17:27:04.497Z,23.45
2018-02-14T17:29:32.870Z,17.62
2018-02-14T17:32:01.479Z,20.35
2018-02-14T17:34:29.867Z,20.83
2018-02-14T17:36:58.195Z,17.62
2018-02-14T17:39:26.484Z,16.90
2018-02-14T17:44:29.288Z,16.27
2018-02-14T17:46:57.655Z,15.15
2018-02-14T17:49:26.056Z,15.00
2018-02-14T17:51:54.376Z,13.70
2018-02-14T17:54:22.824Z,12.70
2018-02-14T17:56:51.143Z,15.85
2018-02-14T17:59:19.516Z,16.12
2018-02-14T18:01:48.646Z,19.48
2018-02-14T18:04:16.992Z,25.40
2018-02-14T18:06:45.315Z,20.02
2018-02-14T18:09:13.709Z,24.40
2018-02-14T18:11:42.031Z,14.20
2018-02-14T18:14:10.351Z,20.67
2018-02-14T18:16:38.713Z,16.67
2018-02-14T18:19:07.078Z,19.90
2018-02-14T18:21:35.384Z,15.98
2018-02-14T18:24:03.803Z,13.00
2018-02-14T18:26:32.131Z,14.40
2018-02-14T18:29:00.532Z,16.00
2018-02-14T18:31:28.941Z,18.02
2018-02-14T18:33:57.255Z,19.52
2018-02-14T18:36:25.572Z,14.68
2018-02-14T18:38:53.927Z,16.25
2018-02-14T18:41:22.296Z,16.98
2018-02-14T18:43:50.639Z,19.17
2018-02-14T18:46:18.992Z,19.23
2018-02-14T18:48:47.326Z,15.88
2018-02-14T18:51:15.640Z,18.20
2018-02-14T18:53:45.103Z,24.90
2018-02-14T18:56:14.061Z,22.35
2018-02-14T18:58:42.574Z,28.70
2018-02-14T19:01:10.904Z,28.60
2018-02-14T19:03:39.297Z,30.60
2018-02-14T19:06:07.639Z,27.90
2018-02-14T19:08:36.186Z,26.73
2018-02-14T19:11:04.570Z,30.27
2018-02-14T19:13:32.976Z,27.45
2018-02-14T19:16:01.291Z,19.70
2018-02-14T19:18:30.383Z,22.90
2018-02-14T19:20:59.523Z,25.33
2018-02-14T19:23:27.847Z,20.15
2018-02-14T19:25:56.175Z,20.70
2018-02-14T19:28:24.568Z,24.90
2018-02-14T19:30:52.895Z,26.77
2018-02-14T19:33:21.212Z,25.55
2018-02-14T19:35:49.587Z,21.30
2018-02-14T19:38:17.906Z,27.25
2018-02-14T19:40:46.223Z,31.25
2018-02-14T19:43:14.884Z,23.58
2018-02-14T19:45:43.208Z,33.47
2018-02-14T19:48:11.524Z,30.27
2018-02-14T19:50:39.899Z,22.48
2018-02-14T19:53:08.227Z,26.02
2018-02-14T19:55:36.543Z,27.00
2018-02-14T19:58:04.896Z,23.10
2018-02-14T20:00:33.207Z,24.45
2018-02-14T20:03:01.525Z,25.05
2018-02-14T20:05:29.891Z,22.58
2018-02-14T20:07:58.975Z,19.55
2018-02-14T20:10:28.052Z,21.17
2018-02-14T20:12:57.194Z,22.40
2018-02-14T20:15:25.571Z,24.58
2018-02-14T20:17:53.895Z,22.65
2018-02-14T20:20:22.307Z,23.08
2018-02-14T20:22:50.642Z,21.23
2018-02-14T20:25:19.024Z,25.15
2018-02-14T20:27:47.359Z,38.78
2018-02-14T20:30:15.808Z,24.33
2018-02-14T20:32:44.187Z,22.08
2018-02-14T20:35:12.433Z,18.73
2018-02-14T20:37:40.676Z,23.02
2018-02-14T20:40:08.999Z,21.00
2018-02-14T20:42:37.367Z,20.40
2018-02-14T20:45:05.687Z,15.30
2018-02-14T20:47:34.395Z,22.35
2018-02-14T20:50:02.722Z,19.67
2018-02-14T20:52:31.116Z,24.60
2018-02-14T20:54:59.499Z,25.42
2018-02-14T20:57:27.820Z,28.40
2018-02-14T20:59:56.143Z,21.60
2018-02-14T21:02:24.511Z,26.17
2018-02-14T21:04:52.840Z,16.85
2018-02-14T21:07:21.163Z,22.45
2018-02-14T21:09:49.542Z,21.60
2018-02-14T21:12:17.866Z,24.83
2018-02-14T21:14:46.192Z,18.98
2018-02-14T21:17:14.578Z,27.50
2018-02-14T21:19:43.455Z,21.52
2018-02-14T21:22:12.279Z,21.12
2018-02-14T21:24:41.068Z,21.15
2018-02-14T21:27:10.372Z,18.08
2018-02-14T21:29:39.427Z,24.17
2018-02-14T21:32:08.412Z,20.77
2018-02-14T21:34:36.855Z,24.10
2018-02-14T21:37:05.954Z,23.48
2018-02-14T21:39:35.138Z,26.40
2018-02-14T21:42:03.871Z,23.48
2018-02-14T21:44:32.208Z,27.10
2018-02-14T21:47:01.371Z,26.98
2018-02-14T21:49:30.576Z,30.70
2018-02-14T21:51:58.895Z,26.90
2018-02-14T21:54:28.113Z,38.58
2018-02-14T21:56:56.463Z,20.77
2018-02-14T21:59:24.852Z,31.30
2018-02-14T22:01:53.199Z,27.35
2018-02-14T22:04:21.520Z,41.90
2018-02-14T22:06:49.840Z,41.35
2018-02-14T22:09:18.203Z,36.53
2018-02-14T22:11:46.516Z,31.90
2018-02-14T22:14:14.835Z,32.40
2018-02-14T22:16:44.527Z,36.63
2018-02-14T22:19:14.403Z,36.40
2018-02-14T22:21:43.523Z,30.00
2018-02-14T22:24:13.507Z,29.55
2018-02-14T22:26:42.512Z,29.80
2018-02-14T22:29:12.023Z,45.25
2018-02-14T22:31:40.570Z,37.47
2018-02-14T22:34:09.640Z,34.88
2018-02-14T22:36:37.948Z,39.42
2018-02-14T22:39:06.266Z,39.50
2018-02-14T22:41:34.631Z,52.13
2018-02-14T22:44:03.531Z,33.53
2018-02-14T22:49:05.363Z,39.22
2018-02-14T22:51:33.679Z,36.53
2018-02-14T22:54:02.004Z,40.40
2018-02-14T22:56:31.255Z,37.25
2018-02-14T22:58:59.583Z,44.25
2018-02-14T23:01:27.907Z,51.95
2018-02-14T23:03:56.094Z,34.60
2018-02-14T23:06:25.175Z,31.67
2018-02-14T23:08:53.519Z,36.88
2018-02-14T23:11:21.985Z,35.83
2018-02-14T23:13:50.312Z,36.95
2018-02-14T23:16:18.644Z,35.20
2018-02-14T23:18:47.007Z,34.08
2018-02-14T23:21:15.331Z,40.80
2018-02-14T23:23:43.763Z,37.10
2018-02-14T23:26:12.308Z,28.62
2018-02-14T23:28:40.632Z,27.62
2018-02-14T23:31:08.967Z,43.55
2018-02-14T23:33:37.307Z,32.22
2018-02-14T23:36:05.647Z,23.05
2018-02-14T23:38:33.981Z,19.67
2018-02-14T23:41:02.363Z,26.37
2018-02-14T23:43:30.840Z,24.20
2018-02-14T23:45:59.197Z,23.00
2018-02-14T23:48:27.544Z,23.80
2018-02-14T23:50:55.896Z,26.40
2018-02-14T23:53:24.219Z,36.38
2018-02-14T23:55:53.271Z,22.75
2018-02-14T23:58:21.601Z,26.83
